CSG6 weather

Edmonton / Kelsonae Heliport
Alberta, Canada

Public forecast

Using degrees Celsius for public forecast. Weather courtesy of forecast.io.

METAR (pilot weather report)

Closest report is Edmonton International Airport, 9.8 nm (18.2 km) ESE. Retrieved 2019/09/16 03:00 UTC (24 minutes ago):

CYEG 160300Z 01005KT 20SM FEW080 BKN100 OVC160 15/11 A2960 RMK AC2AC5AC3 VIRGA N SLP035 DENSITY ALT 3300FT

TAF (pilot weather forecast)

Closest forecast is Edmonton International Airport, 9.8 nm (18.2 km) ESE. Retrieved 2019/09/16 03:40 UTC (0 seconds ago):

TAF CYEG 160238Z 1603/1624 VRB03KT P6SM FEW050 BKN160 FM160500 11006KT P6SM SCT080 BKN200 TEMPO 1605/1608 P6SM VCSH BKN080 FM160800 28008KT 2SM BR SCT004 OVC010 FM161600 32006KT P6SM SCT012 TEMPO 1616/1618 BKN012 FM161800 34008KT P6SM SCT040 BKN220 FM162200 34012KT P6SM BKN040 RMK NXT FCST BY 160600Z